sensor_id;sensor_type;location;lat;lon;timestamp;temperature;humidity
3758;DHT22;1894;51.038;13.692;2022-10-31T00:01:29;10.40;99.90
3758;DHT22;1894;51.038;13.692;2022-10-31T00:03:59;10.50;99.90
3758;DHT22;1894;51.038;13.692;2022-10-31T00:06:27;10.40;99.90
3758;DHT22;1894;51.038;13.692;2022-10-31T00:08:56;10.40;99.90
3758;DHT22;1894;51.038;13.692;2022-10-31T00:11:27;10.40;99.90
3758;DHT22;1894;51.038;13.692;2022-10-31T00:13:54;10.40;99.90
3758;DHT22;1894;51.038;13.692;2022-10-31T00:16:24;10.30;99.90
3758;DHT22;1894;51.038;13.692;2022-10-31T00:18:55;10.30;99.90
3758;DHT22;1894;51.038;13.692;2022-10-31T00:21:25;10.30;99.90
3758;DHT22;1894;51.038;13.692;2022-10-31T00:23:52;10.30;99.90
3758;DHT22;1894;51.038;13.692;2022-10-31T00:26:20;10.20;99.90
3758;DHT22;1894;51.038;13.692;2022-10-31T00:28:47;10.20;99.90
3758;DHT22;1894;51.038;13.692;2022-10-31T00:31:15;10.20;99.90
3758;DHT22;1894;51.038;13.692;2022-10-31T00:33:43;10.20;99.90
3758;DHT22;1894;51.038;13.692;2022-10-31T00:36:16;10.20;99.90
3758;DHT22;1894;51.038;13.692;2022-10-31T00:38:45;10.20;99.90
3758;DHT22;1894;51.038;13.692;2022-10-31T00:41:14;10.20;99.90
3758;DHT22;1894;51.038;13.692;2022-10-31T00:43:43;10.20;99.90
3758;DHT22;1894;51.038;13.692;2022-10-31T00:46:12;10.10;99.90
3758;DHT22;1894;51.038;13.692;2022-10-31T00:48:41;10.10;99.90
3758;DHT22;1894;51.038;13.692;2022-10-31T00:51:09;10.10;99.90
3758;DHT22;1894;51.038;13.692;2022-10-31T00:53:38;10.00;99.90
3758;DHT22;1894;51.038;13.692;2022-10-31T00:56:06;10.00;99.90
3758;DHT22;1894;51.038;13.692;2022-10-31T00:58:34;10.00;99.90
3758;DHT22;1894;51.038;13.692;2022-10-31T01:01:01;10.00;99.90
3758;DHT22;1894;51.038;13.692;2022-10-31T01:03:31;10.00;99.90
3758;DHT22;1894;51.038;13.692;2022-10-31T01:06:03;10.00;99.90
3758;DHT22;1894;51.038;13.692;2022-10-31T01:08:32;9.90;99.90
3758;DHT22;1894;51.038;13.692;2022-10-31T01:13:40;9.90;99.90
3758;DHT22;1894;51.038;13.692;2022-10-31T01:16:11;9.90;99.90
3758;DHT22;1894;51.038;13.692;2022-10-31T01:18:40;9.90;99.90
3758;DHT22;1894;51.038;13.692;2022-10-31T01:21:13;9.90;99.90
3758;DHT22;1894;51.038;13.692;2022-10-31T01:23:41;9.90;99.90
3758;DHT22;1894;51.038;13.692;2022-10-31T01:26:14;9.90;99.90
3758;DHT22;1894;51.038;13.692;2022-10-31T01:28:52;9.90;99.90
3758;DHT22;1894;51.038;13.692;2022-10-31T01:31:23;9.90;99.90
3758;DHT22;1894;51.038;13.692;2022-10-31T01:33:53;9.90;99.90
3758;DHT22;1894;51.038;13.692;2022-10-31T01:36:25;9.80;99.90
3758;DHT22;1894;51.038;13.692;2022-10-31T01:38:58;9.80;99.90
3758;DHT22;1894;51.038;13.692;2022-10-31T01:41:29;9.80;99.90
3758;DHT22;1894;51.038;13.692;2022-10-31T01:46:53;9.80;99.90
3758;DHT22;1894;51.038;13.692;2022-10-31T01:55:26;9.80;99.90
3758;DHT22;1894;51.038;13.692;2022-10-31T01:58:13;9.80;99.90
3758;DHT22;1894;51.038;13.692;2022-10-31T02:00:46;9.70;99.90
3758;DHT22;1894;51.038;13.692;2022-10-31T02:03:17;9.70;99.90
3758;DHT22;1894;51.038;13.692;2022-10-31T02:05:45;9.70;99.90
3758;DHT22;1894;51.038;13.692;2022-10-31T02:10:58;9.60;99.90
3758;DHT22;1894;51.038;13.692;2022-10-31T02:13:26;9.50;99.90
3758;DHT22;1894;51.038;13.692;2022-10-31T02:15:57;9.60;99.90
3758;DHT22;1894;51.038;13.692;2022-10-31T02:18:27;9.50;99.90
3758;DHT22;1894;51.038;13.692;2022-10-31T02:21:10;9.50;99.90
3758;DHT22;1894;51.038;13.692;2022-10-31T02:30:18;9.50;99.90
3758;DHT22;1894;51.038;13.692;2022-10-31T02:35:48;9.50;99.90
3758;DHT22;1894;51.038;13.692;2022-10-31T02:41:01;9.50;99.90
3758;DHT22;1894;51.038;13.692;2022-10-31T02:43:42;9.50;99.90
3758;DHT22;1894;51.038;13.692;2022-10-31T02:46:27;9.40;99.90
3758;DHT22;1894;51.038;13.692;2022-10-31T02:48:57;9.40;99.90
3758;DHT22;1894;51.038;13.692;2022-10-31T02:51:28;9.40;99.90
3758;DHT22;1894;51.038;13.692;2022-10-31T02:53:55;9.40;99.90
3758;DHT22;1894;51.038;13.692;2022-10-31T02:56:22;9.40;99.90
3758;DHT22;1894;51.038;13.692;2022-10-31T02:58:59;9.40;99.90
3758;DHT22;1894;51.038;13.692;2022-10-31T03:07:17;9.30;99.90
3758;DHT22;1894;51.038;13.692;2022-10-31T03:10:04;9.30;99.90
3758;DHT22;1894;51.038;13.692;2022-10-31T03:13:02;9.40;99.90
3758;DHT22;1894;51.038;13.692;2022-10-31T03:16:04;9.30;99.90
3758;DHT22;1894;51.038;13.692;2022-10-31T03:18:37;9.30;99.90
3758;DHT22;1894;51.038;13.692;2022-10-31T03:21:16;9.30;99.90
3758;DHT22;1894;51.038;13.692;2022-10-31T03:23:48;9.30;99.90
3758;DHT22;1894;51.038;13.692;2022-10-31T03:26:20;9.30;99.90
3758;DHT22;1894;51.038;13.692;2022-10-31T03:29:01;9.30;99.90
3758;DHT22;1894;51.038;13.692;2022-10-31T03:31:38;9.20;99.90
3758;DHT22;1894;51.038;13.692;2022-10-31T03:34:12;9.20;99.90
3758;DHT22;1894;51.038;13.692;2022-10-31T03:36:41;9.20;99.90
3758;DHT22;1894;51.038;13.692;2022-10-31T03:39:13;9.20;99.90
3758;DHT22;1894;51.038;13.692;2022-10-31T03:41:45;9.30;99.90
3758;DHT22;1894;51.038;13.692;2022-10-31T03:44:17;9.30;99.90
3758;DHT22;1894;51.038;13.692;2022-10-31T03:46:54;9.20;99.90
3758;DHT22;1894;51.038;13.692;2022-10-31T03:49:22;9.20;99.90
3758;DHT22;1894;51.038;13.692;2022-10-31T03:52:24;9.20;99.90
3758;DHT22;1894;51.038;13.692;2022-10-31T04:00:33;9.10;99.90
3758;DHT22;1894;51.038;13.692;2022-10-31T04:03:11;9.00;99.90
3758;DHT22;1894;51.038;13.692;2022-10-31T04:05:46;9.00;99.90
3758;DHT22;1894;51.038;13.692;2022-10-31T04:08:18;9.00;99.90
3758;DHT22;1894;51.038;13.692;2022-10-31T04:10:49;9.00;99.90
3758;DHT22;1894;51.038;13.692;2022-10-31T04:13:26;8.90;99.90
3758;DHT22;1894;51.038;13.692;2022-10-31T04:16:04;9.00;99.90
3758;DHT22;1894;51.038;13.692;2022-10-31T04:18:32;9.00;99.90
3758;DHT22;1894;51.038;13.692;2022-10-31T04:21:05;9.00;99.90
3758;DHT22;1894;51.038;13.692;2022-10-31T04:23:35;9.00;99.90
3758;DHT22;1894;51.038;13.692;2022-10-31T04:26:24;8.90;99.90
3758;DHT22;1894;51.038;13.692;2022-10-31T04:28:51;9.00;99.90
3758;DHT22;1894;51.038;13.692;2022-10-31T04:31:18;9.00;99.90
3758;DHT22;1894;51.038;13.692;2022-10-31T04:33:48;9.00;99.90
3758;DHT22;1894;51.038;13.692;2022-10-31T04:36:15;8.90;99.90
3758;DHT22;1894;51.038;13.692;2022-10-31T04:38:42;8.90;99.90
3758;DHT22;1894;51.038;13.692;2022-10-31T04:41:22;8.90;99.90
3758;DHT22;1894;51.038;13.692;2022-10-31T04:43:57;8.90;99.90
3758;DHT22;1894;51.038;13.692;2022-10-31T04:46:26;8.80;99.90
3758;DHT22;1894;51.038;13.692;2022-10-31T04:48:55;8.80;99.90
3758;DHT22;1894;51.038;13.692;2022-10-31T04:51:23;8.80;99.90
3758;DHT22;1894;51.038;13.692;2022-10-31T04:53:51;8.80;99.90
3758;DHT22;1894;51.038;13.692;2022-10-31T04:56:27;8.80;99.90
3758;DHT22;1894;51.038;13.692;2022-10-31T04:59:04;8.70;99.90
3758;DHT22;1894;51.038;13.692;2022-10-31T05:01:45;8.80;99.90
3758;DHT22;1894;51.038;13.692;2022-10-31T05:04:12;8.70;99.90
3758;DHT22;1894;51.038;13.692;2022-10-31T05:06:40;8.70;99.90
3758;DHT22;1894;51.038;13.692;2022-10-31T05:09:07;8.60;99.90
3758;DHT22;1894;51.038;13.692;2022-10-31T05:11:35;8.70;99.90
3758;DHT22;1894;51.038;13.692;2022-10-31T05:14:17;8.70;99.90
3758;DHT22;1894;51.038;13.692;2022-10-31T05:17:03;8.70;99.90
3758;DHT22;1894;51.038;13.692;2022-10-31T05:19:53;8.70;99.90
3758;DHT22;1894;51.038;13.692;2022-10-31T05:23:05;8.70;99.90
3758;DHT22;1894;51.038;13.692;2022-10-31T05:25:32;8.70;99.90
3758;DHT22;1894;51.038;13.692;2022-10-31T05:28:02;8.60;99.90
3758;DHT22;1894;51.038;13.692;2022-10-31T05:30:31;8.60;99.90
3758;DHT22;1894;51.038;13.692;2022-10-31T05:32:59;8.60;99.90
3758;DHT22;1894;51.038;13.692;2022-10-31T05:35:46;8.60;99.90
3758;DHT22;1894;51.038;13.692;2022-10-31T05:38:28;8.70;99.90
3758;DHT22;1894;51.038;13.692;2022-10-31T05:40:58;8.70;99.90
3758;DHT22;1894;51.038;13.692;2022-10-31T05:43:30;8.70;99.90
3758;DHT22;1894;51.038;13.692;2022-10-31T05:45:59;8.70;99.90
3758;DHT22;1894;51.038;13.692;2022-10-31T05:48:46;8.60;99.90
3758;DHT22;1894;51.038;13.692;2022-10-31T05:51:28;8.70;99.90
3758;DHT22;1894;51.038;13.692;2022-10-31T05:53:55;8.60;99.90
3758;DHT22;1894;51.038;13.692;2022-10-31T05:56:23;8.60;99.90
3758;DHT22;1894;51.038;13.692;2022-10-31T05:58:50;8.60;99.90
3758;DHT22;1894;51.038;13.692;2022-10-31T06:01:17;8.60;99.90
3758;DHT22;1894;51.038;13.692;2022-10-31T06:03:45;8.70;99.90
3758;DHT22;1894;51.038;13.692;2022-10-31T06:06:15;8.70;99.90
3758;DHT22;1894;51.038;13.692;2022-10-31T06:08:42;8.60;99.90
3758;DHT22;1894;51.038;13.692;2022-10-31T06:11:14;8.60;99.90
3758;DHT22;1894;51.038;13.692;2022-10-31T06:13:53;8.60;99.90
3758;DHT22;1894;51.038;13.692;2022-10-31T06:16:29;8.70;99.90
3758;DHT22;1894;51.038;13.692;2022-10-31T06:19:02;8.70;99.90
3758;DHT22;1894;51.038;13.692;2022-10-31T06:21:30;8.70;99.90
3758;DHT22;1894;51.038;13.692;2022-10-31T06:23:57;8.70;99.90
3758;DHT22;1894;51.038;13.692;2022-10-31T06:26:53;8.80;99.90
3758;DHT22;1894;51.038;13.692;2022-10-31T06:29:21;8.90;99.90
3758;DHT22;1894;51.038;13.692;2022-10-31T06:32:04;9.00;99.90
3758;DHT22;1894;51.038;13.692;2022-10-31T06:34:37;9.00;99.90
3758;DHT22;1894;51.038;13.692;2022-10-31T06:37:06;9.00;99.90
3758;DHT22;1894;51.038;13.692;2022-10-31T06:39:34;9.00;99.90
3758;DHT22;1894;51.038;13.692;2022-10-31T06:42:02;9.10;99.90
3758;DHT22;1894;51.038;13.692;2022-10-31T06:44:30;9.10;99.90
3758;DHT22;1894;51.038;13.692;2022-10-31T06:47:16;9.20;99.90
3758;DHT22;1894;51.038;13.692;2022-10-31T06:49:55;9.30;99.90
3758;DHT22;1894;51.038;13.692;2022-10-31T06:52:24;9.40;99.90
3758;DHT22;1894;51.038;13.692;2022-10-31T06:54:52;9.40;99.90
3758;DHT22;1894;51.038;13.692;2022-10-31T06:57:20;9.50;99.90
3758;DHT22;1894;51.038;13.692;2022-10-31T06:59:48;9.70;99.90
3758;DHT22;1894;51.038;13.692;2022-10-31T07:02:38;9.60;99.90
3758;DHT22;1894;51.038;13.692;2022-10-31T07:05:05;9.70;99.90
3758;DHT22;1894;51.038;13.692;2022-10-31T07:07:32;9.80;99.90
3758;DHT22;1894;51.038;13.692;2022-10-31T07:10:00;9.90;99.90
3758;DHT22;1894;51.038;13.692;2022-10-31T07:12:42;9.90;99.90
3758;DHT22;1894;51.038;13.692;2022-10-31T07:15:09;10.00;99.90
3758;DHT22;1894;51.038;13.692;2022-10-31T07:17:37;10.10;99.90
3758;DHT22;1894;51.038;13.692;2022-10-31T07:20:07;10.20;99.90
3758;DHT22;1894;51.038;13.692;2022-10-31T07:22:36;10.40;99.90
3758;DHT22;1894;51.038;13.692;2022-10-31T07:25:07;10.50;99.90
3758;DHT22;1894;51.038;13.692;2022-10-31T07:27:38;10.60;99.90
3758;DHT22;1894;51.038;13.692;2022-10-31T07:30:12;10.70;99.90
3758;DHT22;1894;51.038;13.692;2022-10-31T07:32:44;10.80;99.90
3758;DHT22;1894;51.038;13.692;2022-10-31T07:35:25;10.90;99.90
3758;DHT22;1894;51.038;13.692;2022-10-31T07:37:57;11.00;99.90
3758;DHT22;1894;51.038;13.692;2022-10-31T07:40:25;11.10;99.90
3758;DHT22;1894;51.038;13.692;2022-10-31T07:42:53;11.20;99.90
3758;DHT22;1894;51.038;13.692;2022-10-31T07:45:39;11.40;99.90
3758;DHT22;1894;51.038;13.692;2022-10-31T07:48:26;11.50;99.90
3758;DHT22;1894;51.038;13.692;2022-10-31T07:51:12;11.70;99.90
3758;DHT22;1894;51.038;13.692;2022-10-31T07:53:51;11.70;99.90
3758;DHT22;1894;51.038;13.692;2022-10-31T07:56:23;11.80;99.90
3758;DHT22;1894;51.038;13.692;2022-10-31T07:58:51;11.90;99.90
3758;DHT22;1894;51.038;13.692;2022-10-31T08:01:18;12.10;99.90
3758;DHT22;1894;51.038;13.692;2022-10-31T08:04:01;12.20;99.90
3758;DHT22;1894;51.038;13.692;2022-10-31T08:07:00;12.30;99.90
3758;DHT22;1894;51.038;13.692;2022-10-31T08:09:33;12.40;99.90
3758;DHT22;1894;51.038;13.692;2022-10-31T08:12:05;12.40;99.90
3758;DHT22;1894;51.038;13.692;2022-10-31T08:14:34;12.50;99.90
3758;DHT22;1894;51.038;13.692;2022-10-31T08:17:01;12.70;99.90
3758;DHT22;1894;51.038;13.692;2022-10-31T08:19:38;12.80;99.90
3758;DHT22;1894;51.038;13.692;2022-10-31T08:22:08;12.90;99.90
3758;DHT22;1894;51.038;13.692;2022-10-31T08:24:36;12.90;99.90
3758;DHT22;1894;51.038;13.692;2022-10-31T08:27:08;13.10;99.90
3758;DHT22;1894;51.038;13.692;2022-10-31T08:29:37;13.20;99.90
3758;DHT22;1894;51.038;13.692;2022-10-31T08:32:04;13.30;99.90
3758;DHT22;1894;51.038;13.692;2022-10-31T08:34:50;13.30;99.90
3758;DHT22;1894;51.038;13.692;2022-10-31T08:37:37;13.40;99.90
3758;DHT22;1894;51.038;13.692;2022-10-31T08:40:05;13.40;99.90
3758;DHT22;1894;51.038;13.692;2022-10-31T08:42:34;13.50;99.90
3758;DHT22;1894;51.038;13.692;2022-10-31T08:45:02;13.60;99.90
3758;DHT22;1894;51.038;13.692;2022-10-31T08:47:31;13.80;99.90
3758;DHT22;1894;51.038;13.692;2022-10-31T08:49:59;13.90;99.90
3758;DHT22;1894;51.038;13.692;2022-10-31T08:52:27;14.00;99.90
3758;DHT22;1894;51.038;13.692;2022-10-31T08:55:15;14.10;99.90
3758;DHT22;1894;51.038;13.692;2022-10-31T08:58:03;14.30;99.90
3758;DHT22;1894;51.038;13.692;2022-10-31T09:00:41;14.30;99.90
3758;DHT22;1894;51.038;13.692;2022-10-31T09:05:47;14.30;99.90
3758;DHT22;1894;51.038;13.692;2022-10-31T09:08:15;14.40;99.90
3758;DHT22;1894;51.038;13.692;2022-10-31T09:10:45;14.40;99.90
3758;DHT22;1894;51.038;13.692;2022-10-31T09:13:19;14.60;99.90
3758;DHT22;1894;51.038;13.692;2022-10-31T09:16:05;14.80;99.90
3758;DHT22;1894;51.038;13.692;2022-10-31T09:18:34;14.90;99.90
3758;DHT22;1894;51.038;13.692;2022-10-31T09:21:01;15.00;99.90
3758;DHT22;1894;51.038;13.692;2022-10-31T09:23:31;15.20;99.90
3758;DHT22;1894;51.038;13.692;2022-10-31T09:26:00;15.20;99.90
3758;DHT22;1894;51.038;13.692;2022-10-31T09:28:41;15.20;99.90
3758;DHT22;1894;51.038;13.692;2022-10-31T09:31:11;15.10;99.90
3758;DHT22;1894;51.038;13.692;2022-10-31T09:34:07;15.20;99.90
3758;DHT22;1894;51.038;13.692;2022-10-31T09:36:35;15.20;99.90
3758;DHT22;1894;51.038;13.692;2022-10-31T09:39:19;15.40;99.90
3758;DHT22;1894;51.038;13.692;2022-10-31T09:48:21;15.80;99.90
3758;DHT22;1894;51.038;13.692;2022-10-31T09:51:20;15.80;99.90
3758;DHT22;1894;51.038;13.692;2022-10-31T09:54:26;15.90;99.90
3758;DHT22;1894;51.038;13.692;2022-10-31T09:57:00;16.10;99.90
3758;DHT22;1894;51.038;13.692;2022-10-31T09:59:34;16.10;99.90
3758;DHT22;1894;51.038;13.692;2022-10-31T10:05:01;16.20;99.90
3758;DHT22;1894;51.038;13.692;2022-10-31T10:08:09;16.40;99.90
3758;DHT22;1894;51.038;13.692;2022-10-31T10:31:09;17.00;99.90
3758;DHT22;1894;51.038;13.692;2022-10-31T10:33:46;16.90;99.90
3758;DHT22;1894;51.038;13.692;2022-10-31T10:37:04;17.00;99.90
3758;DHT22;1894;51.038;13.692;2022-10-31T10:39:35;17.00;99.90
3758;DHT22;1894;51.038;13.692;2022-10-31T10:42:14;17.10;99.90
3758;DHT22;1894;51.038;13.692;2022-10-31T10:45:15;17.20;99.90
3758;DHT22;1894;51.038;13.692;2022-10-31T10:48:14;17.40;99.90
3758;DHT22;1894;51.038;13.692;2022-10-31T10:50:50;17.40;99.90
3758;DHT22;1894;51.038;13.692;2022-10-31T11:00:29;19.20;99.90
3758;DHT22;1894;51.038;13.692;2022-10-31T11:02:57;20.40;99.90
3758;DHT22;1894;51.038;13.692;2022-10-31T11:05:36;21.20;99.90
3758;DHT22;1894;51.038;13.692;2022-10-31T11:08:07;22.40;99.90
3758;DHT22;1894;51.038;13.692;2022-10-31T11:10:35;22.80;99.90
3758;DHT22;1894;51.038;13.692;2022-10-31T11:13:14;23.80;99.90
3758;DHT22;1894;51.038;13.692;2022-10-31T11:16:01;24.60;99.90
3758;DHT22;1894;51.038;13.692;2022-10-31T11:18:34;25.00;99.90
3758;DHT22;1894;51.038;13.692;2022-10-31T11:21:21;25.40;99.90
3758;DHT22;1894;51.038;13.692;2022-10-31T11:24:23;26.00;99.90
3758;DHT22;1894;51.038;13.692;2022-10-31T11:26:50;26.80;98.90
3758;DHT22;1894;51.038;13.692;2022-10-31T11:29:23;27.20;97.20
3758;DHT22;1894;51.038;13.692;2022-10-31T11:31:53;28.30;93.40
3758;DHT22;1894;51.038;13.692;2022-10-31T11:34:46;28.30;92.70
3758;DHT22;1894;51.038;13.692;2022-10-31T11:37:32;29.10;90.90
3758;DHT22;1894;51.038;13.692;2022-10-31T11:40:05;29.10;88.10
3758;DHT22;1894;51.038;13.692;2022-10-31T11:42:39;30.00;85.80
3758;DHT22;1894;51.038;13.692;2022-10-31T11:45:15;29.00;85.60
3758;DHT22;1894;51.038;13.692;2022-10-31T11:48:18;29.90;82.30
3758;DHT22;1894;51.038;13.692;2022-10-31T11:50:50;29.90;81.20
3758;DHT22;1894;51.038;13.692;2022-10-31T11:53:26;30.30;79.40
3758;DHT22;1894;51.038;13.692;2022-10-31T11:56:16;31.10;79.00
3758;DHT22;1894;51.038;13.692;2022-10-31T11:58:43;31.00;75.50
3758;DHT22;1894;51.038;13.692;2022-10-31T12:01:25;30.60;75.80
3758;DHT22;1894;51.038;13.692;2022-10-31T12:06:41;31.00;74.40
3758;DHT22;1894;51.038;13.692;2022-10-31T12:09:24;31.00;75.10
3758;DHT22;1894;51.038;13.692;2022-10-31T12:14:54;31.60;72.00
3758;DHT22;1894;51.038;13.692;2022-10-31T12:17:56;32.30;68.70
3758;DHT22;1894;51.038;13.692;2022-10-31T12:23:46;31.30;70.90
3758;DHT22;1894;51.038;13.692;2022-10-31T12:29:26;32.50;66.70
3758;DHT22;1894;51.038;13.692;2022-10-31T12:58:31;34.00;58.10
3758;DHT22;1894;51.038;13.692;2022-10-31T13:01:08;33.70;56.80
3758;DHT22;1894;51.038;13.692;2022-10-31T13:04:12;32.90;59.40
3758;DHT22;1894;51.038;13.692;2022-10-31T13:06:50;32.40;59.30
3758;DHT22;1894;51.038;13.692;2022-10-31T13:09:26;32.70;59.60
3758;DHT22;1894;51.038;13.692;2022-10-31T13:12:02;32.40;58.80
3758;DHT22;1894;51.038;13.692;2022-10-31T13:14:40;32.90;60.10
3758;DHT22;1894;51.038;13.692;2022-10-31T13:19:57;33.30;58.30
3758;DHT22;1894;51.038;13.692;2022-10-31T13:22:32;33.50;57.10
3758;DHT22;1894;51.038;13.692;2022-10-31T13:27:59;32.90;58.10
3758;DHT22;1894;51.038;13.692;2022-10-31T13:30:31;33.20;57.00
3758;DHT22;1894;51.038;13.692;2022-10-31T13:33:13;32.70;57.70
3758;DHT22;1894;51.038;13.692;2022-10-31T13:42:11;33.10;57.90
3758;DHT22;1894;51.038;13.692;2022-10-31T13:44:50;33.40;57.10
3758;DHT22;1894;51.038;13.692;2022-10-31T13:47:25;33.20;56.90
3758;DHT22;1894;51.038;13.692;2022-10-31T13:50:06;33.30;57.50
3758;DHT22;1894;51.038;13.692;2022-10-31T13:52:46;33.70;56.00
3758;DHT22;1894;51.038;13.692;2022-10-31T13:55:42;33.70;56.10
3758;DHT22;1894;51.038;13.692;2022-10-31T13:58:37;32.20;58.10
3758;DHT22;1894;51.038;13.692;2022-10-31T14:01:12;32.30;58.20
3758;DHT22;1894;51.038;13.692;2022-10-31T14:03:45;32.40;59.10
3758;DHT22;1894;51.038;13.692;2022-10-31T14:06:37;32.60;57.70
3758;DHT22;1894;51.038;13.692;2022-10-31T14:09:05;32.70;57.70
3758;DHT22;1894;51.038;13.692;2022-10-31T14:11:33;33.10;57.10
3758;DHT22;1894;51.038;13.692;2022-10-31T14:14:03;32.60;58.60
3758;DHT22;1894;51.038;13.692;2022-10-31T14:16:40;32.60;57.80
3758;DHT22;1894;51.038;13.692;2022-10-31T14:19:19;31.70;58.80
3758;DHT22;1894;51.038;13.692;2022-10-31T14:21:49;30.90;60.70
3758;DHT22;1894;51.038;13.692;2022-10-31T14:26:55;29.70;63.90
3758;DHT22;1894;51.038;13.692;2022-10-31T14:29:41;28.60;67.90
3758;DHT22;1894;51.038;13.692;2022-10-31T14:32:25;27.30;73.80
3758;DHT22;1894;51.038;13.692;2022-10-31T14:34:56;26.30;80.40
3758;DHT22;1894;51.038;13.692;2022-10-31T14:52:56;22.40;99.90
3758;DHT22;1894;51.038;13.692;2022-10-31T14:55:24;21.80;99.90
3758;DHT22;1894;51.038;13.692;2022-10-31T14:57:57;21.30;99.90
3758;DHT22;1894;51.038;13.692;2022-10-31T15:00:31;21.00;99.90
3758;DHT22;1894;51.038;13.692;2022-10-31T15:03:03;20.80;99.90
3758;DHT22;1894;51.038;13.692;2022-10-31T15:05:54;20.70;99.90
3758;DHT22;1894;51.038;13.692;2022-10-31T15:08:37;20.50;99.90
3758;DHT22;1894;51.038;13.692;2022-10-31T15:11:14;20.30;99.90
3758;DHT22;1894;51.038;13.692;2022-10-31T15:16:34;19.90;99.90
3758;DHT22;1894;51.038;13.692;2022-10-31T15:19:07;19.80;99.90
3758;DHT22;1894;51.038;13.692;2022-10-31T15:21:43;19.50;99.90
3758;DHT22;1894;51.038;13.692;2022-10-31T15:24:15;19.30;99.90
3758;DHT22;1894;51.038;13.692;2022-10-31T15:26:50;19.10;99.90
3758;DHT22;1894;51.038;13.692;2022-10-31T15:29:20;18.90;99.90
3758;DHT22;1894;51.038;13.692;2022-10-31T15:31:54;18.70;99.90
3758;DHT22;1894;51.038;13.692;2022-10-31T15:34:40;18.50;99.90
3758;DHT22;1894;51.038;13.692;2022-10-31T15:37:17;18.30;99.90
3758;DHT22;1894;51.038;13.692;2022-10-31T15:39:47;18.10;99.90
3758;DHT22;1894;51.038;13.692;2022-10-31T15:42:27;18.00;99.90
3758;DHT22;1894;51.038;13.692;2022-10-31T15:45:22;17.90;99.90
3758;DHT22;1894;51.038;13.692;2022-10-31T15:47:59;17.70;99.90
3758;DHT22;1894;51.038;13.692;2022-10-31T15:50:32;17.60;99.90
3758;DHT22;1894;51.038;13.692;2022-10-31T15:53:05;17.40;99.90
3758;DHT22;1894;51.038;13.692;2022-10-31T15:55:49;17.30;99.90
3758;DHT22;1894;51.038;13.692;2022-10-31T15:58:33;17.20;99.90
3758;DHT22;1894;51.038;13.692;2022-10-31T16:01:23;17.10;99.90
3758;DHT22;1894;51.038;13.692;2022-10-31T16:06:31;16.80;99.90
3758;DHT22;1894;51.038;13.692;2022-10-31T16:09:00;16.70;99.90
3758;DHT22;1894;51.038;13.692;2022-10-31T16:11:38;16.60;99.90
3758;DHT22;1894;51.038;13.692;2022-10-31T16:16:43;16.40;99.90
3758;DHT22;1894;51.038;13.692;2022-10-31T16:19:18;16.40;99.90
3758;DHT22;1894;51.038;13.692;2022-10-31T16:21:54;16.30;99.90
3758;DHT22;1894;51.038;13.692;2022-10-31T16:24:26;16.20;99.90
3758;DHT22;1894;51.038;13.692;2022-10-31T16:27:18;16.10;99.90
3758;DHT22;1894;51.038;13.692;2022-10-31T16:29:50;16.00;99.90
3758;DHT22;1894;51.038;13.692;2022-10-31T16:37:52;15.80;99.90
3758;DHT22;1894;51.038;13.692;2022-10-31T16:40:20;15.70;99.90
3758;DHT22;1894;51.038;13.692;2022-10-31T16:42:48;15.60;99.90
3758;DHT22;1894;51.038;13.692;2022-10-31T16:45:24;15.60;99.90
3758;DHT22;1894;51.038;13.692;2022-10-31T16:47:52;15.40;99.90
3758;DHT22;1894;51.038;13.692;2022-10-31T16:52:50;15.40;99.90
3758;DHT22;1894;51.038;13.692;2022-10-31T16:55:55;15.40;99.90
3758;DHT22;1894;51.038;13.692;2022-10-31T16:58:34;15.30;99.90
3758;DHT22;1894;51.038;13.692;2022-10-31T17:01:04;15.30;99.90
3758;DHT22;1894;51.038;13.692;2022-10-31T17:03:33;15.20;99.90
3758;DHT22;1894;51.038;13.692;2022-10-31T17:06:00;15.10;99.90
3758;DHT22;1894;51.038;13.692;2022-10-31T17:08:28;15.10;99.90
3758;DHT22;1894;51.038;13.692;2022-10-31T17:10:57;15.00;99.90
3758;DHT22;1894;51.038;13.692;2022-10-31T17:13:28;15.00;99.90
3758;DHT22;1894;51.038;13.692;2022-10-31T17:15:59;14.90;99.90
3758;DHT22;1894;51.038;13.692;2022-10-31T17:18:28;14.80;99.90
3758;DHT22;1894;51.038;13.692;2022-10-31T17:20:58;14.70;99.90
3758;DHT22;1894;51.038;13.692;2022-10-31T17:23:26;14.60;99.90
3758;DHT22;1894;51.038;13.692;2022-10-31T17:25:55;14.50;99.90
3758;DHT22;1894;51.038;13.692;2022-10-31T17:28:24;14.50;99.90
3758;DHT22;1894;51.038;13.692;2022-10-31T17:30:57;14.50;99.90
3758;DHT22;1894;51.038;13.692;2022-10-31T17:33:25;14.50;99.90
3758;DHT22;1894;51.038;13.692;2022-10-31T17:35:53;14.40;99.90
3758;DHT22;1894;51.038;13.692;2022-10-31T17:38:20;14.30;99.90
3758;DHT22;1894;51.038;13.692;2022-10-31T17:40:47;14.30;99.90
3758;DHT22;1894;51.038;13.692;2022-10-31T17:43:19;14.30;99.90
3758;DHT22;1894;51.038;13.692;2022-10-31T17:45:46;14.30;99.90
3758;DHT22;1894;51.038;13.692;2022-10-31T17:48:13;14.30;99.90
3758;DHT22;1894;51.038;13.692;2022-10-31T17:50:40;14.30;99.90
3758;DHT22;1894;51.038;13.692;2022-10-31T17:53:10;14.20;99.90
3758;DHT22;1894;51.038;13.692;2022-10-31T17:55:37;14.30;99.90
3758;DHT22;1894;51.038;13.692;2022-10-31T17:58:04;14.40;99.90
3758;DHT22;1894;51.038;13.692;2022-10-31T18:00:32;14.30;99.90
3758;DHT22;1894;51.038;13.692;2022-10-31T18:03:03;14.30;99.90
3758;DHT22;1894;51.038;13.692;2022-10-31T18:05:30;14.40;99.90
3758;DHT22;1894;51.038;13.692;2022-10-31T18:07:58;14.40;99.90
3758;DHT22;1894;51.038;13.692;2022-10-31T18:10:30;14.30;99.90
3758;DHT22;1894;51.038;13.692;2022-10-31T18:13:00;14.30;99.90
3758;DHT22;1894;51.038;13.692;2022-10-31T18:15:30;14.30;99.90
3758;DHT22;1894;51.038;13.692;2022-10-31T18:17:59;14.30;99.90
3758;DHT22;1894;51.038;13.692;2022-10-31T18:20:29;14.20;99.90
3758;DHT22;1894;51.038;13.692;2022-10-31T18:22:56;14.20;99.90
3758;DHT22;1894;51.038;13.692;2022-10-31T18:25:23;14.20;99.90
3758;DHT22;1894;51.038;13.692;2022-10-31T18:27:50;14.10;99.90
3758;DHT22;1894;51.038;13.692;2022-10-31T18:30:17;14.10;99.90
3758;DHT22;1894;51.038;13.692;2022-10-31T18:32:47;14.10;99.90
3758;DHT22;1894;51.038;13.692;2022-10-31T18:35:15;14.10;99.90
3758;DHT22;1894;51.038;13.692;2022-10-31T18:37:42;14.00;99.90
3758;DHT22;1894;51.038;13.692;2022-10-31T18:40:09;13.90;99.90
3758;DHT22;1894;51.038;13.692;2022-10-31T18:42:39;13.80;99.90
3758;DHT22;1894;51.038;13.692;2022-10-31T18:45:06;13.80;99.90
3758;DHT22;1894;51.038;13.692;2022-10-31T18:47:53;13.60;99.90
3758;DHT22;1894;51.038;13.692;2022-10-31T18:50:20;13.60;99.90
3758;DHT22;1894;51.038;13.692;2022-10-31T18:52:48;13.50;99.90
3758;DHT22;1894;51.038;13.692;2022-10-31T18:55:15;13.50;99.90
3758;DHT22;1894;51.038;13.692;2022-10-31T18:57:42;13.40;99.90
3758;DHT22;1894;51.038;13.692;2022-10-31T19:00:09;13.30;99.90
3758;DHT22;1894;51.038;13.692;2022-10-31T19:02:37;13.30;99.90
3758;DHT22;1894;51.038;13.692;2022-10-31T19:05:05;13.30;99.90
3758;DHT22;1894;51.038;13.692;2022-10-31T19:07:32;13.20;99.90
3758;DHT22;1894;51.038;13.692;2022-10-31T19:09:59;13.20;99.90
3758;DHT22;1894;51.038;13.692;2022-10-31T19:12:26;13.10;99.90
3758;DHT22;1894;51.038;13.692;2022-10-31T19:14:53;13.00;99.90
3758;DHT22;1894;51.038;13.692;2022-10-31T19:17:23;13.00;99.90
3758;DHT22;1894;51.038;13.692;2022-10-31T19:19:51;12.90;99.90